Time;durP1;ratioP1;P1;durP2;ratioP2;P2;SDS_P1;SDS_P2;PMS_P1;PMS_P2;Temp;Humidity;BMP_temperature;BMP_pressure;BME280_temperature;BME280_humidity;BME280_pressure;Samples;Min_cycle;Max_cycle;Signal;HPM_P1;HPM_P2
2022/03/31 00:02:10;;;;;;;0.30;0.30;;;4.20;99.90;;;;;;5041664;28;20540;-61
2022/03/31 00:04:39;;;;;;;0.47;0.47;;;4.20;99.90;;;;;;5024293;28;20111;-61
2022/03/31 00:07:06;;;;;;;0.57;0.47;;;4.20;99.90;;;;;;5022430;28;20118;-61
2022/03/31 00:09:33;;;;;;;0.60;0.60;;;4.20;99.90;;;;;;5024630;28;20132;-61
2022/03/31 00:12:00;;;;;;;0.63;0.60;;;4.20;99.90;;;;;;5025574;28;20144;-61
2022/03/31 00:14:27;;;;;;;0.65;0.60;;;4.20;99.90;;;;;;5026029;28;20504;-61
2022/03/31 00:16:54;;;;;;;0.93;0.60;;;4.20;99.90;;;;;;5025815;28;20088;-61
2022/03/31 00:19:20;;;;;;;0.50;0.50;;;4.20;99.90;;;;;;5025092;28;20081;-61
2022/03/31 00:21:48;;;;;;;0.60;0.60;;;4.10;99.90;;;;;;5022088;28;20053;-60
2022/03/31 00:24:15;;;;;;;1.15;0.60;;;4.10;99.90;;;;;;5026250;28;20165;-61
2022/03/31 00:26:42;;;;;;;1.42;0.47;;;4.20;99.90;;;;;;5024548;28;20049;-61
2022/03/31 00:29:09;;;;;;;0.55;0.52;;;4.10;99.90;;;;;;5025395;28;20308;-61
2022/03/31 00:31:35;;;;;;;0.60;0.60;;;4.10;99.90;;;;;;5020801;28;20103;-61
2022/03/31 00:34:02;;;;;;;1.05;0.50;;;4.10;99.90;;;;;;5023724;28;20124;-61
2022/03/31 00:36:29;;;;;;;0.63;0.40;;;4.10;99.90;;;;;;5025689;28;20069;-61
2022/03/31 00:41:41;;;;;;;0.75;0.40;;;4.20;99.90;;;;;;5026265;28;20780;-61
2022/03/31 00:44:08;;;;;;;1.30;0.47;;;4.10;99.90;;;;;;5024087;28;20231;-61
2022/03/31 00:46:35;;;;;;;2.45;1.02;;;4.00;99.90;;;;;;5028553;28;20168;-61
2022/03/31 00:49:02;;;;;;;0.65;0.40;;;4.00;99.90;;;;;;5024098;28;20139;-61
2022/03/31 00:51:29;;;;;;;0.60;0.50;;;4.00;99.90;;;;;;5041638;28;20124;-61
2022/03/31 00:53:56;;;;;;;0.57;0.30;;;4.10;99.90;;;;;;5025010;28;20469;-60
2022/03/31 00:56:24;;;;;;;0.57;0.40;;;4.10;99.90;;;;;;5034791;28;20407;-61
2022/03/31 00:58:51;;;;;;;0.40;0.30;;;4.10;99.90;;;;;;5042701;28;20124;-61
2022/03/31 01:01:18;;;;;;;0.60;0.40;;;4.00;99.90;;;;;;5024866;28;20145;-61
2022/03/31 01:03:45;;;;;;;1.13;0.30;;;4.00;99.90;;;;;;5018899;28;20108;-61
2022/03/31 01:06:11;;;;;;;1.15;0.60;;;4.00;99.90;;;;;;5027850;28;20084;-61
2022/03/31 01:08:38;;;;;;;0.50;0.47;;;4.00;99.90;;;;;;5023753;28;20490;-61
2022/03/31 01:11:05;;;;;;;0.40;0.40;;;4.00;99.90;;;;;;5025151;28;20132;-61
2022/03/31 01:13:32;;;;;;;1.20;0.50;;;4.00;99.90;;;;;;5031580;28;20549;-61
2022/03/31 01:15:59;;;;;;;0.52;0.50;;;4.00;99.90;;;;;;5032922;28;20061;-61
2022/03/31 01:18:25;;;;;;;1.05;0.40;;;4.00;99.90;;;;;;5024511;28;20199;-61
2022/03/31 01:20:52;;;;;;;0.60;0.60;;;3.90;99.90;;;;;;5022829;28;20129;-61
2022/03/31 01:23:21;;;;;;;0.82;0.52;;;3.90;99.90;;;;;;5024912;28;20107;-61
2022/03/31 01:25:48;;;;;;;1.23;0.70;;;3.90;99.90;;;;;;5025095;28;20210;-61
2022/03/31 01:28:14;;;;;;;3.03;0.57;;;3.80;99.90;;;;;;5022957;28;20092;-60
2022/03/31 01:30:41;;;;;;;0.40;0.40;;;3.80;99.90;;;;;;5024349;28;20521;-60
2022/03/31 01:33:08;;;;;;;2.05;0.60;;;3.80;99.90;;;;;;5023965;28;20579;-61
2022/03/31 01:35:35;;;;;;;0.93;0.50;;;3.80;99.90;;;;;;5023008;28;20084;-60
2022/03/31 01:38:02;;;;;;;0.70;0.68;;;3.80;99.90;;;;;;5023987;28;20556;-60
2022/03/31 01:40:28;;;;;;;1.60;0.60;;;3.80;99.90;;;;;;5026844;28;20515;-60
2022/03/31 01:42:55;;;;;;;2.35;0.57;;;3.70;99.90;;;;;;5021272;28;20401;-60
2022/03/31 01:45:22;;;;;;;0.57;0.38;;;3.70;99.90;;;;;;5024772;28;20496;-61
2022/03/31 01:47:49;;;;;;;1.85;0.57;;;3.70;99.90;;;;;;5026297;28;20069;-60
2022/03/31 01:50:16;;;;;;;0.50;0.50;;;3.60;99.90;;;;;;5022248;28;20057;-60
2022/03/31 01:52:43;;;;;;;0.80;0.40;;;3.70;99.90;;;;;;5024933;28;20127;-60
2022/03/31 01:55:10;;;;;;;0.77;0.60;;;3.70;99.90;;;;;;5025848;28;20493;-60
2022/03/31 01:57:37;;;;;;;1.02;0.60;;;3.70;99.90;;;;;;5025402;28;20124;-61
2022/03/31 02:00:05;;;;;;;1.45;0.63;;;3.60;99.90;;;;;;5024487;28;20180;-61
2022/03/31 02:02:32;;;;;;;3.33;0.65;;;3.60;99.90;;;;;;5019987;28;20077;-60
2022/03/31 02:04:59;;;;;;;2.30;0.80;;;3.60;99.90;;;;;;5023957;28;20102;-61
2022/03/31 02:07:26;;;;;;;0.77;0.70;;;3.60;99.90;;;;;;5025161;28;20069;-61
2022/03/31 02:09:53;;;;;;;2.80;0.75;;;3.50;99.90;;;;;;5024436;28;20084;-61
2022/03/31 02:12:20;;;;;;;1.52;0.60;;;3.50;99.90;;;;;;5024582;28;20164;-60
2022/03/31 02:14:46;;;;;;;3.25;0.70;;;3.50;99.90;;;;;;5022787;28;20180;-60
2022/03/31 02:17:13;;;;;;;1.40;0.60;;;3.50;99.90;;;;;;5024188;28;20169;-61
2022/03/31 02:19:40;;;;;;;4.30;1.55;;;3.50;99.90;;;;;;5023435;28;20053;-60
2022/03/31 02:22:07;;;;;;;1.85;0.90;;;3.50;99.90;;;;;;5024791;28;20092;-61
2022/03/31 02:24:36;;;;;;;0.93;0.75;;;3.50;99.90;;;;;;5023073;28;20167;-61
2022/03/31 02:27:04;;;;;;;1.58;0.70;;;3.50;99.90;;;;;;5024558;28;20124;-60
2022/03/31 02:29:31;;;;;;;2.42;1.10;;;3.40;99.90;;;;;;5023402;28;20208;-61
2022/03/31 02:31:57;;;;;;;1.67;1.27;;;3.50;99.90;;;;;;5023648;28;20060;-61
2022/03/31 02:34:24;;;;;;;1.80;0.75;;;3.40;99.90;;;;;;5018685;28;20049;-60
2022/03/31 02:36:51;;;;;;;2.05;1.02;;;3.40;99.90;;;;;;5024362;28;20792;-60
2022/03/31 02:39:18;;;;;;;1.92;1.00;;;3.30;99.90;;;;;;5023931;28;20141;-60
2022/03/31 02:41:44;;;;;;;2.17;1.35;;;3.40;99.90;;;;;;5023057;28;20120;-60
2022/03/31 02:44:11;;;;;;;2.65;1.30;;;3.40;99.90;;;;;;5024136;28;20049;-60
2022/03/31 02:46:38;;;;;;;3.22;1.10;;;3.30;99.90;;;;;;5023688;28;20077;-61
2022/03/31 02:49:05;;;;;;;2.35;1.20;;;3.30;99.90;;;;;;5023371;28;20398;-61
2022/03/31 02:51:32;;;;;;;1.63;0.93;;;3.30;99.90;;;;;;5034704;28;20128;-61
2022/03/31 02:56:45;;;;;;;2.30;1.20;;;3.30;99.90;;;;;;5023039;28;20120;-60
2022/03/31 02:59:11;;;;;;;2.25;1.00;;;3.30;99.90;;;;;;5021067;28;20124;-61
2022/03/31 03:01:38;;;;;;;3.92;1.33;;;3.20;99.90;;;;;;5023218;28;20069;-61
2022/03/31 03:04:08;;;;;;;2.63;1.50;;;3.20;99.90;;;;;;5023172;28;20049;-61
2022/03/31 03:06:35;;;;;;;2.92;1.42;;;3.10;99.90;;;;;;5023789;28;20574;-60
2022/03/31 03:09:02;;;;;;;4.28;1.60;;;3.10;99.90;;;;;;5023634;28;20049;-61
2022/03/31 03:11:29;;;;;;;3.45;1.35;;;3.10;99.90;;;;;;5024399;28;20118;-60
2022/03/31 03:13:56;;;;;;;4.18;1.58;;;3.00;99.90;;;;;;5026135;28;20152;-60
2022/03/31 03:16:25;;;;;;;3.10;1.90;;;3.10;99.90;;;;;;5009165;28;20082;-61
2022/03/31 03:18:52;;;;;;;3.08;1.77;;;3.00;99.90;;;;;;5026911;28;20127;-60
2022/03/31 03:21:20;;;;;;;1.75;1.30;;;3.00;99.90;;;;;;5027659;28;20084;-60
2022/03/31 03:23:48;;;;;;;2.40;1.60;;;3.00;99.90;;;;;;5027805;28;20497;-61
2022/03/31 03:26:14;;;;;;;2.10;1.70;;;3.00;99.90;;;;;;5046745;28;20049;-61
2022/03/31 03:28:41;;;;;;;2.70;1.55;;;3.00;99.90;;;;;;5044334;28;20135;-60
2022/03/31 03:31:08;;;;;;;1.80;1.48;;;3.00;99.90;;;;;;5046143;28;20067;-60
2022/03/31 03:33:35;;;;;;;1.88;1.27;;;3.00;99.90;;;;;;5029339;28;20053;-61
2022/03/31 03:36:03;;;;;;;2.90;1.83;;;3.00;99.90;;;;;;5027137;28;20336;-60
2022/03/31 03:38:31;;;;;;;3.08;1.38;;;3.00;99.90;;;;;;5026264;28;20053;-60
2022/03/31 03:40:58;;;;;;;2.97;1.45;;;2.90;99.90;;;;;;5026183;28;20071;-60
2022/03/31 03:43:24;;;;;;;2.05;1.75;;;2.90;99.90;;;;;;5006151;28;20077;-60
2022/03/31 03:45:52;;;;;;;1.77;1.17;;;2.90;99.90;;;;;;5027168;28;20076;-60
2022/03/31 03:48:20;;;;;;;3.22;1.60;;;2.90;99.90;;;;;;5025016;28;20045;-60
2022/03/31 03:50:47;;;;;;;1.75;1.27;;;2.90;99.90;;;;;;5025575;28;20048;-60
2022/03/31 03:53:14;;;;;;;2.20;1.15;;;2.90;99.90;;;;;;5026740;28;20041;-60
2022/03/31 03:55:40;;;;;;;2.03;1.20;;;2.80;99.90;;;;;;5027493;28;20143;-60
2022/03/31 03:58:07;;;;;;;2.28;1.10;;;2.80;99.90;;;;;;5024255;28;20807;-60
2022/03/31 04:00:34;;;;;;;2.58;1.33;;;2.80;99.90;;;;;;5026123;28;20072;-60
2022/03/31 04:03:01;;;;;;;1.40;1.00;;;2.70;99.90;;;;;;5026186;28;20156;-60
2022/03/31 04:05:28;;;;;;;3.33;1.23;;;2.70;99.90;;;;;;5025696;28;20045;-60
2022/03/31 04:07:55;;;;;;;2.20;1.02;;;2.70;99.90;;;;;;5027079;28;20484;-61
2022/03/31 04:10:22;;;;;;;1.40;1.02;;;2.70;99.90;;;;;;5026415;28;20080;-60
2022/03/31 04:12:49;;;;;;;2.17;1.10;;;2.60;99.90;;;;;;5024732;28;20538;-60
2022/03/31 04:15:16;;;;;;;1.80;0.98;;;2.60;99.90;;;;;;5026889;28;20080;-61
2022/03/31 04:17:43;;;;;;;0.90;0.80;;;2.60;99.90;;;;;;5024094;28;20077;-61
2022/03/31 04:20:11;;;;;;;2.53;1.17;;;2.60;99.90;;;;;;5026403;28;20448;-61
2022/03/31 04:22:38;;;;;;;3.00;1.10;;;2.50;99.90;;;;;;5026287;28;20081;-60
2022/03/31 04:25:08;;;;;;;2.90;0.88;;;2.50;99.90;;;;;;5026016;28;20134;-61
2022/03/31 04:27:35;;;;;;;1.67;1.00;;;2.50;99.90;;;;;;5026188;28;20077;-60
2022/03/31 04:30:06;;;;;;;1.92;1.00;;;2.40;99.90;;;;;;5024138;28;20045;-60
2022/03/31 04:32:33;;;;;;;3.15;1.05;;;2.40;99.90;;;;;;5024910;28;20434;-61
2022/03/31 04:34:59;;;;;;;1.70;1.20;;;2.40;99.90;;;;;;5018954;28;20244;-61
2022/03/31 04:37:26;;;;;;;1.92;1.17;;;2.30;99.90;;;;;;5026339;28;20104;-61
2022/03/31 04:39:53;;;;;;;1.00;0.75;;;2.30;99.90;;;;;;5040258;28;20045;-61
2022/03/31 04:42:20;;;;;;;1.10;0.95;;;2.30;99.90;;;;;;5044390;28;20164;-60
2022/03/31 04:44:47;;;;;;;1.70;0.85;;;2.30;99.90;;;;;;5025872;28;20206;-61
2022/03/31 04:47:14;;;;;;;1.23;0.63;;;2.30;99.90;;;;;;5025536;28;20121;-60
2022/03/31 04:49:40;;;;;;;1.20;0.90;;;2.20;99.90;;;;;;5021109;28;20221;-60
2022/03/31 04:52:07;;;;;;;3.08;1.05;;;2.20;99.90;;;;;;5022686;28;20124;-60
2022/03/31 04:54:34;;;;;;;1.63;1.08;;;2.20;99.90;;;;;;5024149;28;20124;-61
2022/03/31 04:57:01;;;;;;;1.33;1.10;;;2.20;99.90;;;;;;5024860;28;20042;-60
2022/03/31 04:59:28;;;;;;;1.27;0.98;;;2.20;99.90;;;;;;5023003;28;20084;-60
2022/03/31 05:01:54;;;;;;;4.88;1.73;;;2.20;99.90;;;;;;5023696;28;20088;-61
2022/03/31 05:04:21;;;;;;;3.28;1.23;;;2.20;99.90;;;;;;5016814;28;20128;-61
2022/03/31 05:06:48;;;;;;;2.53;1.27;;;2.20;99.90;;;;;;5017783;28;20049;-60
2022/03/31 05:09:15;;;;;;;3.58;1.38;;;2.20;99.90;;;;;;5017127;28;20045;-60
2022/03/31 05:11:41;;;;;;;2.08;1.42;;;2.20;99.90;;;;;;5020675;28;20157;-60
2022/03/31 05:14:08;;;;;;;2.25;1.58;;;2.20;99.90;;;;;;5018252;28;20190;-60
2022/03/31 05:16:35;;;;;;;2.13;1.70;;;2.20;99.90;;;;;;5024621;28;20139;-60
2022/03/31 05:19:02;;;;;;;2.78;2.00;;;2.20;99.90;;;;;;5021471;28;20064;-61
2022/03/31 05:21:29;;;;;;;3.40;2.50;;;2.20;99.90;;;;;;5017014;28;20223;-60
2022/03/31 05:23:56;;;;;;;4.57;2.85;;;2.20;99.90;;;;;;5025841;28;20135;-60
2022/03/31 05:26:23;;;;;;;4.18;3.38;;;2.20;99.90;;;;;;5026230;28;20052;-61
2022/03/31 05:28:49;;;;;;;5.68;4.82;;;2.10;99.90;;;;;;5026154;28;20132;-60
2022/03/31 05:31:16;;;;;;;5.95;4.32;;;2.10;99.90;;;;;;5023326;28;20372;-61
2022/03/31 05:33:43;;;;;;;6.25;4.57;;;2.10;99.90;;;;;;5023239;28;20460;-60
2022/03/31 05:36:10;;;;;;;4.72;4.25;;;2.00;99.90;;;;;;5025099;28;20132;-61
2022/03/31 05:38:36;;;;;;;5.88;4.32;;;2.00;99.90;;;;;;5027591;28;20077;-60
2022/03/31 05:41:03;;;;;;;5.95;3.97;;;2.00;99.90;;;;;;5017751;28;20049;-61
2022/03/31 05:43:30;;;;;;;4.43;3.97;;;2.00;99.90;;;;;;5018861;28;20053;-60
2022/03/31 05:45:57;;;;;;;5.63;3.92;;;2.00;99.90;;;;;;5015426;28;20159;-60
2022/03/31 05:48:24;;;;;;;4.80;3.85;;;2.00;99.90;;;;;;5007049;28;20445;-60
2022/03/31 05:50:50;;;;;;;4.50;3.50;;;2.00;99.90;;;;;;5011659;28;20462;-60
2022/03/31 05:53:17;;;;;;;3.92;3.53;;;2.00;99.90;;;;;;5008491;28;20085;-62
2022/03/31 05:55:45;;;;;;;4.75;3.42;;;2.00;99.90;;;;;;5015336;28;20116;-61
2022/03/31 05:58:12;;;;;;;3.50;3.20;;;2.00;99.90;;;;;;5012128;28;20053;-60
2022/03/31 06:00:39;;;;;;;5.15;3.53;;;2.00;99.90;;;;;;5009951;28;20058;-61
2022/03/31 06:03:06;;;;;;;6.20;4.22;;;2.00;99.90;;;;;;5004011;28;20075;-60
2022/03/31 06:05:33;;;;;;;3.78;3.30;;;2.00;99.90;;;;;;5011030;28;20050;-60
2022/03/31 06:08:00;;;;;;;6.28;3.25;;;2.00;99.90;;;;;;5015385;28;20090;-60
2022/03/31 06:10:27;;;;;;;5.07;2.67;;;2.00;99.90;;;;;;5000140;28;20141;-60
2022/03/31 06:12:54;;;;;;;4.20;2.80;;;2.00;99.90;;;;;;5001513;28;20240;-60
2022/03/31 06:15:21;;;;;;;4.90;2.70;;;2.00;99.90;;;;;;4999829;28;20135;-60
2022/03/31 06:17:48;;;;;;;4.32;2.60;;;2.10;99.90;;;;;;5010864;28;20053;-60
2022/03/31 06:20:15;;;;;;;4.75;2.85;;;2.20;99.90;;;;;;5004849;28;20523;-62
2022/03/31 06:22:42;;;;;;;3.78;2.70;;;2.10;99.90;;;;;;5002760;28;20123;-60
2022/03/31 06:25:11;;;;;;;4.00;2.47;;;2.10;99.90;;;;;;5018240;28;20061;-60
2022/03/31 06:27:38;;;;;;;3.63;2.38;;;2.10;99.90;;;;;;5017364;28;20053;-60
2022/03/31 06:30:05;;;;;;;4.05;2.63;;;2.10;99.90;;;;;;5015260;28;20122;-60
2022/03/31 06:32:32;;;;;;;2.55;2.17;;;2.10;99.90;;;;;;5017829;28;20137;-60
2022/03/31 06:35:00;;;;;;;2.83;2.13;;;2.10;99.90;;;;;;5015336;28;20263;-60
2022/03/31 06:37:28;;;;;;;3.78;2.58;;;2.10;99.90;;;;;;5018232;28;20160;-60
2022/03/31 06:39:54;;;;;;;3.85;2.40;;;2.30;99.90;;;;;;5016531;28;20077;-60
2022/03/31 06:42:21;;;;;;;3.30;2.47;;;2.30;99.90;;;;;;5017076;28;20099;-60
2022/03/31 06:44:55;;;;;;;3.75;2.40;;;2.30;99.90;;;;;;5017980;28;20374;-59
2022/03/31 06:47:45;;;;;;;3.50;2.20;;;2.40;99.90;;;;;;5015436;28;20054;-60
2022/03/31 06:50:13;;;;;;;4.97;2.40;;;2.30;99.90;;;;;;5017295;28;20046;-60
2022/03/31 06:52:40;;;;;;;3.35;2.33;;;2.30;99.90;;;;;;5016159;28;20083;-60
2022/03/31 06:55:07;;;;;;;3.05;2.42;;;2.30;99.90;;;;;;5016275;28;20472;-59
2022/03/31 06:57:34;;;;;;;3.40;2.63;;;2.30;99.90;;;;;;5017526;28;20172;-59
2022/03/31 07:00:01;;;;;;;2.45;2.05;;;2.40;99.90;;;;;;5017044;28;20168;-59
2022/03/31 07:02:27;;;;;;;4.10;2.60;;;2.40;99.90;;;;;;5017714;28;20053;-59
2022/03/31 07:04:55;;;;;;;5.00;2.50;;;2.40;99.90;;;;;;5015718;28;20413;-59
2022/03/31 07:07:22;;;;;;;4.10;2.28;;;2.50;99.90;;;;;;5018003;28;20144;-59
2022/03/31 07:09:49;;;;;;;2.88;1.73;;;2.60;99.90;;;;;;5013525;28;20081;-59
2022/03/31 07:12:16;;;;;;;4.18;2.25;;;2.70;99.90;;;;;;5007894;28;20148;-59
2022/03/31 07:14:43;;;;;;;2.78;2.25;;;2.80;99.90;;;;;;5014796;28;20064;-59
2022/03/31 07:17:11;;;;;;;3.78;2.35;;;2.80;99.90;;;;;;5012360;28;20460;-59
2022/03/31 07:19:38;;;;;;;3.90;2.60;;;2.70;99.90;;;;;;5016228;28;20491;-59
2022/03/31 07:22:05;;;;;;;4.85;2.30;;;2.70;99.90;;;;;;5016339;28;20144;-59
2022/03/31 07:24:31;;;;;;;3.85;2.53;;;2.70;99.90;;;;;;5003687;28;20049;-59
2022/03/31 07:26:58;;;;;;;5.57;2.67;;;2.70;99.90;;;;;;5009210;28;20131;-59
2022/03/31 07:29:25;;;;;;;2.13;1.80;;;2.80;99.90;;;;;;5023407;28;20257;-59
2022/03/31 07:31:52;;;;;;;3.13;2.25;;;2.90;99.90;;;;;;5019576;28;20072;-59
2022/03/31 07:34:19;;;;;;;4.05;2.47;;;3.00;99.90;;;;;;5015196;28;20050;-58
2022/03/31 07:36:46;;;;;;;3.53;2.00;;;3.00;99.90;;;;;;5037862;28;20402;-59
2022/03/31 07:39:12;;;;;;;5.15;2.92;;;3.10;99.90;;;;;;5028932;28;20136;-59
2022/03/31 07:41:39;;;;;;;3.08;2.10;;;3.20;99.90;;;;;;5016954;28;20096;-59
2022/03/31 07:44:06;;;;;;;5.25;2.28;;;3.20;99.90;;;;;;5016741;28;20144;-59
2022/03/31 07:46:34;;;;;;;2.60;2.30;;;3.30;99.90;;;;;;5017371;28;20164;-58
2022/03/31 07:49:01;;;;;;;3.47;2.28;;;3.30;99.90;;;;;;5017099;28;20454;-59
2022/03/31 07:51:29;;;;;;;5.07;2.70;;;3.40;99.90;;;;;;5013933;28;20153;-59
2022/03/31 07:53:56;;;;;;;5.88;2.45;;;3.40;99.90;;;;;;5006547;28;20513;-59
2022/03/31 07:56:23;;;;;;;4.43;2.38;;;3.50;99.90;;;;;;5028429;28;20160;-59
2022/03/31 07:58:50;;;;;;;3.17;2.75;;;3.60;99.90;;;;;;5034134;28;20045;-59
2022/03/31 08:01:17;;;;;;;2.72;2.13;;;3.70;99.90;;;;;;5038320;28;20088;-60
2022/03/31 08:03:44;;;;;;;11.23;2.75;;;3.70;99.90;;;;;;5028746;28;20052;-59
2022/03/31 08:06:10;;;;;;;4.00;2.35;;;3.70;99.90;;;;;;5012850;28;20045;-59
2022/03/31 08:08:38;;;;;;;5.15;2.95;;;3.60;99.90;;;;;;5038917;28;20156;-59
2022/03/31 08:11:05;;;;;;;5.07;3.10;;;3.50;99.90;;;;;;5031905;28;20083;-59
2022/03/31 08:13:31;;;;;;;4.75;2.80;;;3.60;99.90;;;;;;5032208;28;20307;-59
2022/03/31 08:15:58;;;;;;;3.20;2.90;;;3.80;99.90;;;;;;5020225;28;20186;-59
2022/03/31 08:18:28;;;;;;;4.20;2.55;;;3.90;99.90;;;;;;5019049;28;20085;-59
2022/03/31 08:20:56;;;;;;;6.07;3.78;;;4.00;99.90;;;;;;5006055;28;20422;-60
2022/03/31 08:23:24;;;;;;;5.38;3.25;;;4.00;99.90;;;;;;5012645;28;20123;-60
2022/03/31 08:25:52;;;;;;;3.38;2.78;;;4.00;99.90;;;;;;5020680;28;20065;-59
2022/03/31 08:28:19;;;;;;;3.50;3.20;;;4.10;99.90;;;;;;5036672;28;20143;-60
2022/03/31 08:30:45;;;;;;;5.10;3.97;;;4.10;99.90;;;;;;5020420;28;20143;-59
2022/03/31 08:33:12;;;;;;;4.75;4.28;;;4.10;99.90;;;;;;5018425;28;20532;-60
2022/03/31 08:35:43;;;;;;;6.05;4.20;;;4.20;99.90;;;;;;5017719;28;20053;-60
2022/03/31 08:38:10;;;;;;;4.90;4.18;;;4.20;99.90;;;;;;5018438;28;20160;-60
2022/03/31 08:40:40;;;;;;;5.18;4.05;;;4.20;99.90;;;;;;5026357;28;20057;-60
2022/03/31 08:43:07;;;;;;;5.75;4.25;;;4.20;99.90;;;;;;5033205;28;20054;-60
2022/03/31 08:45:35;;;;;;;5.22;4.22;;;4.10;99.90;;;;;;5006335;28;20144;-60
2022/03/31 08:48:03;;;;;;;6.15;3.80;;;4.10;99.90;;;;;;5002435;28;20085;-60
2022/03/31 08:50:30;;;;;;;4.60;3.00;;;4.10;99.90;;;;;;5019734;28;20235;-60
2022/03/31 08:52:57;;;;;;;4.47;2.95;;;4.30;99.90;;;;;;5022313;28;20120;-60
2022/03/31 08:55:23;;;;;;;3.95;2.70;;;4.30;99.90;;;;;;5011019;28;20593;-60
2022/03/31 08:57:51;;;;;;;3.15;2.38;;;4.40;99.90;;;;;;5002251;28;20046;-60
2022/03/31 09:00:20;;;;;;;5.75;2.22;;;4.30;99.90;;;;;;5014227;28;20049;-60
2022/03/31 09:02:58;;;;;;;3.55;1.98;;;4.30;99.90;;;;;;5009214;28;20057;-60
2022/03/31 09:05:25;;;;;;;4.38;2.22;;;4.40;99.90;;;;;;5004250;28;20057;-60
2022/03/31 09:08:00;;;;;;;2.15;1.55;;;4.40;99.90;;;;;;5000164;28;20148;-60
2022/03/31 09:10:47;;;;;;;2.05;1.35;;;4.30;99.90;;;;;;5009960;28;20050;-60
2022/03/31 09:13:28;;;;;;;2.90;1.30;;;4.40;99.90;;;;;;5011795;28;20613;-60
2022/03/31 09:16:01;;;;;;;3.83;1.10;;;4.40;99.90;;;;;;5014643;28;20454;-60
2022/03/31 09:18:29;;;;;;;1.77;1.17;;;4.50;99.90;;;;;;5017021;28;20493;-60
2022/03/31 09:20:58;;;;;;;2.33;1.02;;;4.60;99.90;;;;;;5014341;28;20208;-60
2022/03/31 09:23:30;;;;;;;1.77;0.90;;;4.70;99.90;;;;;;5014514;28;20144;-60
2022/03/31 09:26:05;;;;;;;1.25;0.85;;;4.80;99.90;;;;;;5000763;28;20068;-60
2022/03/31 09:28:32;;;;;;;1.35;0.90;;;4.90;99.90;;;;;;4999758;28;20061;-60
2022/03/31 09:30:59;;;;;;;2.15;1.02;;;5.10;99.90;;;;;;5007508;28;20049;-60
2022/03/31 09:33:34;;;;;;;1.80;0.90;;;5.10;99.90;;;;;;5014808;28;20042;-60
2022/03/31 09:36:01;;;;;;;1.42;1.00;;;5.20;99.90;;;;;;5002685;28;20127;-60
2022/03/31 09:38:29;;;;;;;3.03;0.95;;;5.20;99.90;;;;;;4999565;28;20501;-60
2022/03/31 09:40:57;;;;;;;4.72;1.20;;;5.10;99.90;;;;;;5017880;28;20252;-59
2022/03/31 09:43:24;;;;;;;0.85;0.50;;;5.10;99.90;;;;;;5009424;28;20046;-59
2022/03/31 09:45:50;;;;;;;2.60;0.90;;;5.20;99.90;;;;;;5002878;28;20136;-60
2022/03/31 09:48:19;;;;;;;2.05;0.80;;;5.20;99.90;;;;;;5011123;28;20049;-59
2022/03/31 09:50:45;;;;;;;2.28;0.95;;;5.20;99.90;;;;;;5024073;28;20066;-59
2022/03/31 09:53:13;;;;;;;2.15;1.00;;;5.40;99.90;;;;;;5002233;28;20135;-59
2022/03/31 09:55:44;;;;;;;4.30;1.10;;;5.50;99.90;;;;;;5016504;28;20049;-60
2022/03/31 09:58:14;;;;;;;6.30;2.40;;;5.50;99.90;;;;;;5018667;28;20131;-59
2022/03/31 10:00:40;;;;;;;5.47;1.77;;;5.20;99.90;;;;;;5014053;28;20216;-59
2022/03/31 10:03:07;;;;;;;5.05;1.55;;;4.90;99.90;;;;;;5024361;28;20095;-59
2022/03/31 10:05:39;;;;;;;3.90;1.17;;;4.40;99.90;;;;;;5005880;28;20083;-60
2022/03/31 10:08:07;;;;;;;3.97;1.15;;;4.20;99.90;;;;;;5012366;28;20119;-60
2022/03/31 10:10:34;;;;;;;3.67;0.95;;;4.10;99.90;;;;;;5018555;28;20148;-59
2022/03/31 10:13:08;;;;;;;3.60;0.88;;;4.20;99.90;;;;;;5015648;28;20108;-59
2022/03/31 10:15:35;;;;;;;4.22;1.00;;;4.40;99.90;;;;;;5007380;28;20211;-59
2022/03/31 10:18:02;;;;;;;3.17;0.85;;;4.60;99.90;;;;;;5014556;28;20152;-60
2022/03/31 10:20:30;;;;;;;3.97;2.05;;;4.70;99.90;;;;;;5009308;28;20076;-59
2022/03/31 10:25:47;;;;;;;5.40;2.03;;;4.80;99.90;;;;;;5033201;28;20138;-59
2022/03/31 10:28:24;;;;;;;3.50;1.40;;;4.90;99.90;;;;;;5020464;28;20133;-59
2022/03/31 10:30:53;;;;;;;4.40;1.55;;;4.90;99.90;;;;;;5008929;28;20495;-59
2022/03/31 10:33:37;;;;;;;3.72;1.30;;;5.10;99.90;;;;;;5003219;28;20083;-59
2022/03/31 10:36:12;;;;;;;4.65;1.70;;;5.50;99.90;;;;;;5015494;28;20047;-59
2022/03/31 10:38:57;;;;;;;5.55;1.58;;;5.70;99.90;;;;;;4998132;28;20058;-59
2022/03/31 10:41:31;;;;;;;3.80;1.38;;;5.90;99.90;;;;;;5018507;28;20452;-59
2022/03/31 10:44:10;;;;;;;3.83;1.23;;;6.20;99.90;;;;;;5019047;28;20512;-59
2022/03/31 10:46:38;;;;;;;3.38;1.30;;;6.40;99.90;;;;;;5021992;28;20172;-59
2022/03/31 10:49:10;;;;;;;5.43;1.58;;;6.40;99.90;;;;;;5018544;28;20878;-59
2022/03/31 10:51:38;;;;;;;1.98;0.93;;;6.50;99.90;;;;;;5017609;28;20410;-59
2022/03/31 10:54:06;;;;;;;5.55;0.95;;;6.70;99.90;;;;;;5014639;28;20204;-59
2022/03/31 10:56:33;;;;;;;3.58;1.30;;;6.90;99.90;;;;;;5006344;28;20081;-59
2022/03/31 10:59:04;;;;;;;5.78;1.90;;;6.80;99.90;;;;;;5004989;28;20149;-59
2022/03/31 11:01:35;;;;;;;7.82;2.30;;;6.50;99.90;;;;;;5019720;28;20484;-59
2022/03/31 11:04:06;;;;;;;4.57;1.70;;;6.20;99.90;;;;;;5018843;28;20105;-59
2022/03/31 11:06:44;;;;;;;5.88;1.83;;;6.40;99.90;;;;;;4999923;28;20050;-59
2022/03/31 11:09:22;;;;;;;6.70;1.65;;;6.50;99.90;;;;;;5009471;28;20068;-59
2022/03/31 11:11:51;;;;;;;5.75;1.70;;;6.60;99.90;;;;;;5015426;28;20219;-60
2022/03/31 11:14:18;;;;;;;5.95;1.50;;;6.70;99.90;;;;;;5001147;28;20212;-61
2022/03/31 11:16:49;;;;;;;3.13;1.25;;;6.90;99.90;;;;;;4997724;28;20479;-59
2022/03/31 11:19:19;;;;;;;2.65;1.00;;;7.10;99.90;;;;;;5015008;28;20077;-59
2022/03/31 11:21:46;;;;;;;5.55;1.00;;;7.30;99.90;;;;;;5017811;28;20535;-60
2022/03/31 11:24:13;;;;;;;4.35;1.33;;;7.30;99.90;;;;;;5009955;28;20140;-60
2022/03/31 11:26:43;;;;;;;4.03;1.38;;;7.20;98.10;;;;;;5016216;28;20052;-59
2022/03/31 11:29:11;;;;;;;3.38;1.63;;;7.10;98.30;;;;;;5000251;28;20050;-60
2022/03/31 11:31:51;;;;;;;3.42;1.25;;;7.40;99.90;;;;;;5014940;28;20166;-59
2022/03/31 11:34:24;;;;;;;6.88;1.20;;;7.70;97.60;;;;;;5012607;28;20077;-59
2022/03/31 11:36:52;;;;;;;4.65;1.33;;;7.90;98.10;;;;;;5017657;28;20136;-60
2022/03/31 11:39:20;;;;;;;5.47;1.25;;;8.00;98.20;;;;;;5018123;28;20113;-59
2022/03/31 11:41:48;;;;;;;4.43;1.20;;;8.00;95.70;;;;;;4999801;28;20146;-59
2022/03/31 11:44:19;;;;;;;3.45;1.10;;;7.90;93.30;;;;;;5005312;28;20050;-59
2022/03/31 11:46:48;;;;;;;6.15;1.02;;;8.10;96.80;;;;;;5001345;28;20052;-60
2022/03/31 11:49:24;;;;;;;3.97;1.33;;;8.30;94.80;;;;;;5009162;28;20060;-59
2022/03/31 11:51:55;;;;;;;2.55;1.05;;;8.50;94.00;;;;;;5013980;28;20462;-60
2022/03/31 11:54:22;;;;;;;4.65;1.38;;;8.70;96.40;;;;;;5010564;28;20615;-59
2022/03/31 11:57:02;;;;;;;4.78;2.33;;;8.70;95.80;;;;;;5012591;28;20050;-60
2022/03/31 11:59:29;;;;;;;6.50;1.55;;;8.40;93.10;;;;;;5000698;28;20050;-59
2022/03/31 12:01:56;;;;;;;7.55;1.42;;;8.30;91.60;;;;;;5000998;28;20057;-59
2022/03/31 12:04:28;;;;;;;5.22;1.40;;;8.00;90.40;;;;;;5011719;28;20468;-59
2022/03/31 12:06:56;;;;;;;4.88;1.73;;;7.80;90.70;;;;;;5011365;28;20888;-60
2022/03/31 12:09:26;;;;;;;4.95;1.77;;;7.50;91.90;;;;;;5015986;28;20136;-59
2022/03/31 12:11:53;;;;;;;5.18;1.73;;;7.60;86.80;;;;;;5009631;28;20062;-59
2022/03/31 12:14:20;;;;;;;4.97;1.40;;;8.00;84.20;;;;;;5004911;28;20123;-59
2022/03/31 12:16:52;;;;;;;7.18;1.52;;;8.20;85.30;;;;;;5000665;28;20564;-59
2022/03/31 12:19:19;;;;;;;4.10;1.92;;;8.50;82.30;;;;;;5003335;28;20053;-59
2022/03/31 12:21:54;;;;;;;3.88;1.05;;;8.70;83.30;;;;;;5013120;28;20053;-59
2022/03/31 12:24:21;;;;;;;4.75;1.67;;;9.10;88.10;;;;;;5010655;28;20056;-61
2022/03/31 12:27:01;;;;;;;5.55;2.05;;;8.90;82.50;;;;;;5008568;28;20053;-60
2022/03/31 12:29:31;;;;;;;3.35;0.90;;;9.20;91.30;;;;;;5005004;28;20612;-59
2022/03/31 12:32:07;;;;;;;5.53;1.60;;;9.30;86.60;;;;;;5015376;28;20277;-59
2022/03/31 12:34:36;;;;;;;5.03;1.15;;;9.30;77.10;;;;;;5008384;28;20455;-59
2022/03/31 12:37:04;;;;;;;2.17;0.90;;;9.40;79.90;;;;;;5000774;28;20072;-60
2022/03/31 12:39:42;;;;;;;5.47;1.65;;;9.60;77.70;;;;;;5009589;28;20496;-60
2022/03/31 12:42:10;;;;;;;3.88;1.58;;;10.00;77.80;;;;;;4998851;28;20137;-59
2022/03/31 12:44:41;;;;;;;2.65;1.20;;;10.10;74.60;;;;;;5004960;28;20119;-60
2022/03/31 12:47:08;;;;;;;2.28;1.13;;;10.70;70.80;;;;;;5001538;28;20049;-60
2022/03/31 12:49:36;;;;;;;4.82;1.58;;;11.10;73.60;;;;;;5003005;28;20258;-59
2022/03/31 12:52:09;;;;;;;2.13;1.15;;;10.70;72.60;;;;;;5020410;28;20152;-59
2022/03/31 12:54:40;;;;;;;4.38;1.20;;;10.50;71.50;;;;;;5017848;28;20472;-59
2022/03/31 12:57:18;;;;;;;2.90;1.08;;;10.10;67.60;;;;;;5017266;28;20148;-59
2022/03/31 12:59:56;;;;;;;4.65;1.85;;;9.70;77.00;;;;;;5010485;28;20525;-60
2022/03/31 13:02:23;;;;;;;4.90;1.48;;;10.10;74.30;;;;;;5019012;28;20353;-60
2022/03/31 13:04:49;;;;;;;2.97;1.30;;;9.90;70.10;;;;;;5013999;28;20083;-60
2022/03/31 13:07:27;;;;;;;4.53;1.05;;;9.90;66.50;;;;;;5005688;28;20144;-60
2022/03/31 13:09:56;;;;;;;3.92;1.20;;;9.80;67.80;;;;;;5007776;28;20045;-60
2022/03/31 13:12:26;;;;;;;2.60;1.00;;;9.80;68.40;;;;;;5014766;28;20549;-59